WetterOnline ( https://www.wetteronline.de )

Wetter aktuell Baunei

Aktuelles Wetter: Capo Bellavista (150m)

6-stündlich | Neueste Meldungen
Ortszeit Temperatur Wetter
Do, 26.11. 19:00 14.0° C wolkig
Do, 26.11. 13:00 16.6° C wolkig
Do, 26.11. 7:00 12.2° C leicht bewölkt
Do, 26.11. 1:00 11.8° C leicht bewölkt
Mi, 25.11. 19:00 12.8° C wolkig
Mi, 25.11. 13:00 17.6° C wolkig
Mi, 25.11. 7:00 11.8° C leicht bewölkt
Mi, 25.11. 1:00 12.0° C bedeckt
Ortszeit Temperatur Wetter
Do, 26.11. 21:00 13.8° C wolkig
Do, 26.11. 20:00 13.8° C wolkig
Do, 26.11. 19:55 14° C leicht bewölkt
Do, 26.11. 19:00 14.0° C wolkig
Do, 26.11. 18:55 14° C bewölkt
Do, 26.11. 18:00 15.0° C wolkig
Do, 26.11. 17:55 15° C bewölkt
Do, 26.11. 17:00 15.0° C wolkig
Ortszeit Relative Feuchte Sichtweite
Do, 26.11. 19:00 88% 20 km
Do, 26.11. 13:00 75% 30 km
Do, 26.11. 7:00 79% 30 km
Do, 26.11. 1:00 74% 30 km
Mi, 25.11. 19:00 73% 20 km
Mi, 25.11. 13:00 52% 25 km
Mi, 25.11. 7:00 78% 20 km
Mi, 25.11. 1:00 76% 20 km
Ortszeit Relative Feuchte Sichtweite
Do, 26.11. 21:00 86% 20 km
Do, 26.11. 20:00 85% 20 km
Do, 26.11. 19:55 82% >10 km
Do, 26.11. 19:00 88% 20 km
Do, 26.11. 18:55 88% >10 km
Do, 26.11. 18:00 87% 20 km
Do, 26.11. 17:55 88% >10 km
Do, 26.11. 17:00 86% 20 km
Ortszeit Niederschlagsmenge Niederschlagsart
Do, 26.11. 19:00 0.0 l/m2 in 12 Std. -
Do, 26.11. 13:00 0.0 l/m2 in 6 Std. -
Do, 26.11. 7:00 0.0 l/m2 in 12 Std. -
Do, 26.11. 1:00 0.0 l/m2 in 6 Std. -
Mi, 25.11. 19:00 0.0 l/m2 in 12 Std. -
Mi, 25.11. 13:00 0.0 l/m2 in 6 Std. -
Mi, 25.11. 7:00 0.0 l/m2 in 12 Std. -
Mi, 25.11. 1:00 0.0 l/m2 in 6 Std. -
Ortszeit Niederschlagsmenge Niederschlagsart
Do, 26.11. 21:00 keine Meldung -
Do, 26.11. 20:00 keine Meldung -
Do, 26.11. 19:55 keine Meldung -
Do, 26.11. 19:00 keine Meldung -
Do, 26.11. 18:55 keine Meldung -
Do, 26.11. 18:00 keine Meldung -
Do, 26.11. 17:55 keine Meldung -
Do, 26.11. 17:00 keine Meldung -
Ortszeit Stärke Spitze Richtung
km/h Bft. km/h Grad Sektor
Do, 26.11. 19:00 4 1 - 30° NO
Do, 26.11. 13:00 4 1 - 100° O
Do, 26.11. 7:00 9 2 - 330° NW
Do, 26.11. 1:00 20 4 - 320° NW
Mi, 25.11. 19:00 11 2 - 310° NW
Mi, 25.11. 13:00 4 1 - 170° S
Mi, 25.11. 7:00 17 3 - 340° N
Mi, 25.11. 1:00 20 4 - 320° NW
Ortszeit Stärke Spitze Richtung
km/h Bft. km/h Grad Sektor
Do, 26.11. 21:00 13 3 - 310° NW
Do, 26.11. 20:00 11 2 - 350° N
Do, 26.11. 19:55 11 2 - 350° N
Do, 26.11. 19:00 4 1 - 30° NO
Do, 26.11. 18:55 4 1 - 30° NO
Do, 26.11. 18:00 7 2 - 70° O
Do, 26.11. 17:55 7 2 - 70° O
Do, 26.11. 17:00 7 2 - 90° O
Ortszeit Untergrenze Bedeckung Gattung
total tief tief mittel hoch
Do, 26.11. 19:00 900 m 7/8 5/8 Cu As -
Do, 26.11. 13:00 900 m 6/8 4/8 Cu As -
Do, 26.11. 7:00 900 m 2/8 2/8 Cu - -
Do, 26.11. 1:00 1050 m 5/8 3/8 Cu Ac -
Mi, 25.11. 19:00 1050 m 7/8 1/8 Cu Ac Ci
Mi, 25.11. 13:00 900 m 6/8 2/8 Cu Ac Ci
Mi, 25.11. 7:00 600 m 4/8 4/8 Cu - -
Mi, 25.11. 1:00 900 m 8/8 8/8 Sc - -
Ortszeit Bedeckungsgrad in Achtel und Wolkenuntergrenze
Do, 26.11. 21:00 3(900m) 3(2100m)
Do, 26.11. 20:00 3(900m) 3(2100m)
Do, 26.11. 19:55 3-4(900m)
Do, 26.11. 19:00 5(900m)
Do, 26.11. 18:55 5-7(900m)
Do, 26.11. 18:00 5(900m)
Do, 26.11. 17:55 5-7(900m)
Do, 26.11. 17:00 5(900m)
Ortszeit Luftdruck NN (hPa) Tendenz (hPa in 3 Std.)
Do, 26.11. 19:00 1020 + 0,5
Do, 26.11. 13:00 1020 - 0,6
Do, 26.11. 7:00 1021 0,0
Do, 26.11. 1:00 1021 + 0,2
Mi, 25.11. 19:00 1020 0,0
Mi, 25.11. 13:00 1021 - 0,1
Mi, 25.11. 7:00 1021 0,0
Mi, 25.11. 1:00 1022 - 0,4
Ortszeit Luftdruck NN (hPa) Tendenz (hPa in 3 Std.)
Do, 26.11. 21:00 1020 0,0
Do, 26.11. 20:00 1020 0,0
Do, 26.11. 19:55 1019 keine Meldung
Do, 26.11. 19:00 1020 + 0,5
Do, 26.11. 18:55 1019 keine Meldung
Do, 26.11. 18:00 1020 0,0
Do, 26.11. 17:55 1019 keine Meldung
Do, 26.11. 17:00 1020 0,0
Ortszeit Schneehöhe (cm)
Do, 26.11. 19:00 -
Do, 26.11. 13:00 -
Do, 26.11. 7:00 0
Do, 26.11. 1:00 -
Mi, 25.11. 19:00 -
Mi, 25.11. 13:00 -
Mi, 25.11. 7:00 0
Mi, 25.11. 1:00 -
Ortszeit Schneehöhe (cm)
Do, 26.11. 21:00 -
Do, 26.11. 20:00 -
Do, 26.11. 19:55 -
Do, 26.11. 19:00 -
Do, 26.11. 18:55 -
Do, 26.11. 18:00 -
Do, 26.11. 17:55 -
Do, 26.11. 17:00 -
Link zu dieser Seite / Seite empfehlen

Das Wetter in ...